Winchendon Springs, MA (01477)

8:51 AM EDT on August 25, 2016 (GMT -0400)
Lake Monomonac | | Change Station

Elev 1047 ft 42.71 °N, 72.00 °W | Updated 2 minutes ago

Partly Cloudy
Partly Cloudy
67.5 °F
Feels Like 67.5 °F
N
2.7
Wind Variable Wind from South

Today
High -- | Low -- °F
--% Chance of Precip.
Yesterday
High -- | Low -- °F
Precip. -- in
Pressure 30.11 in
Visibility 10.0 miles
Clouds Few 800 ft
Dew Point 61 °F
Humidity 80%
Rainfall 0.00 in
Snow Depth Not available.
6:05 AM 7:33 PM
Last Quarter, 46% visible
SPECI KAFN 251216Z AUTO VRB05KT 10SM FEW008 19/16 A3011 RMK AO2 T01890161
Pressure 30.11 in
Visibility 10.0 miles
Clouds Few 800 ft
Dew Point 61 °F
Humidity 80%
Rainfall 0.00 in
Snow Depth Not available.
6:05 AM 7:33 PM
Last Quarter, 46% visible
SPECI KAFN 251216Z AUTO VRB05KT 10SM FEW008 19/16 A3011 RMK AO2 T01890161

10-Day Weather Forecast

Almanac

Astronomy

Aug. 25, 2016 Rise Set
Actual Time
Civil Twilight
Nautical Twilight
Astronomical Twilight
Moon
Length of Visible Light
Length of Day
Tomorrow will be .
, % of the Moon is Illuminated

Today's Extremes

State Highs State Lows

Community

WunderPhotos

Upload Photos

1,934,837 photos uploaded!

WunderBlog® & News

Nearby

Air Quality

  Air Quality AQ Index Pollutant
Not available.

Snow Depth

Station Depth Elevation

Earthquake Activity

City Distance Mag. Time & Date
Minimum magnitude displayed is 2.5.

Coastal Water Temperatures

Place Temperature

Stations

Nearby Weather Stations

Station Location Temp. Windchill Dew Point Humidity Wind Precip. Elev Updated Type
                   

Watches & Warnings

There are currently no watches in effect.